Saeby, Denmark
Current Conditions -  °F | °C
As of 3:50 PM on Thursday 23 Oct 2014 (Local Time) from EKSN Reporting Station
Drizzle Drizzle  
Wind Chill: 50°   Ceiling: 1200
Heat Index: 50°   Visibility: 4mi
Dew Point: 48°   Wind: 13mph
Humidity: 94%   Direction: 170°S
Pressure: 30.03"   Gusts: NA
Location:  57.33°N, 10.52°E
Report Text: EKSN 231350Z 17011KT 6000 -DZ SCT008 BKN012 10/09 Q1017
Loading
Personal Weather Stations






























Interactive Weather Map
Tropical Storm Tracking
New forecast layout! Learn more

10-Day Weather Forecast

Advertisements
Track Severe Weather on mobile